createdAt,value
2023-05-09T00:00:32.330Z,10.60
2023-05-09T00:02:59.280Z,11.50
2023-05-09T00:05:29.827Z,14.20
2023-05-09T00:07:56.587Z,13.60
2023-05-09T00:10:23.442Z,14.00
2023-05-09T00:12:50.724Z,12.00
2023-05-09T00:15:17.530Z,11.40
2023-05-09T00:17:46.104Z,11.20
2023-05-09T00:20:13.071Z,9.80
2023-05-09T00:22:41.293Z,8.90
2023-05-09T00:25:08.811Z,8.80
2023-05-09T00:27:35.611Z,8.20
2023-05-09T00:30:03.261Z,9.10
2023-05-09T00:34:58.181Z,8.00
2023-05-09T00:37:25.141Z,8.70
2023-05-09T00:39:51.871Z,9.70
2023-05-09T00:42:18.854Z,9.90
2023-05-09T00:44:45.625Z,9.20
2023-05-09T00:47:12.460Z,9.90
2023-05-09T00:49:39.255Z,8.40
2023-05-09T00:52:06.314Z,8.50
2023-05-09T00:54:33.079Z,8.20
2023-05-09T00:57:00.791Z,7.30
2023-05-09T00:59:27.887Z,6.70
2023-05-09T01:01:54.781Z,7.80
2023-05-09T01:04:21.794Z,8.40
2023-05-09T01:06:57.807Z,9.70
2023-05-09T01:09:25.827Z,8.40
2023-05-09T01:12:19.112Z,7.50
2023-05-09T01:15:04.760Z,6.20
2023-05-09T01:17:33.617Z,11.80
2023-05-09T01:20:05.354Z,11.30
2023-05-09T01:22:34.964Z,11.90
2023-05-09T01:25:20.914Z,11.70
2023-05-09T01:27:49.760Z,10.40
2023-05-09T01:30:17.044Z,10.50
2023-05-09T01:32:44.140Z,9.90
2023-05-09T01:35:12.577Z,10.70
2023-05-09T01:37:39.876Z,9.90
2023-05-09T01:40:06.920Z,8.50
2023-05-09T01:42:41.294Z,9.00
2023-05-09T01:45:08.461Z,8.80
2023-05-09T01:47:35.382Z,7.70
2023-05-09T01:50:02.709Z,7.60
2023-05-09T01:52:29.468Z,8.60
2023-05-09T01:54:56.373Z,8.90
2023-05-09T01:57:23.125Z,8.20
2023-05-09T01:59:50.060Z,7.30
2023-05-09T02:02:18.088Z,7.10
2023-05-09T02:04:45.056Z,7.80
2023-05-09T02:07:12.791Z,8.70
2023-05-09T02:09:39.652Z,9.20
2023-05-09T02:12:06.930Z,10.60
2023-05-09T02:14:33.690Z,10.90
2023-05-09T02:17:06.418Z,9.00
2023-05-09T02:19:34.432Z,8.30
2023-05-09T02:22:01.413Z,7.60
2023-05-09T02:24:28.169Z,7.30
2023-05-09T02:26:56.011Z,7.40
2023-05-09T02:29:23.169Z,7.90
2023-05-09T02:31:49.937Z,8.30
2023-05-09T02:34:16.721Z,9.50
2023-05-09T02:36:43.548Z,9.00
2023-05-09T02:39:10.461Z,9.00
2023-05-09T02:41:37.228Z,8.00
2023-05-09T02:44:04.049Z,11.50
2023-05-09T02:46:31.191Z,13.00
2023-05-09T02:48:58.339Z,11.80
2023-05-09T02:51:26.250Z,12.20
2023-05-09T02:53:53.047Z,11.60
2023-05-09T02:56:19.848Z,10.70
2023-05-09T02:58:51.353Z,10.80
2023-05-09T03:01:18.624Z,10.00
2023-05-09T03:03:46.399Z,10.10
2023-05-09T03:06:14.358Z,9.70
2023-05-09T03:08:41.306Z,9.90
2023-05-09T03:11:08.507Z,7.70
2023-05-09T03:13:37.174Z,8.30
2023-05-09T03:16:04.288Z,8.80
2023-05-09T03:18:31.217Z,9.80
2023-05-09T03:20:58.196Z,14.00
2023-05-09T03:23:25.905Z,14.20
2023-05-09T03:25:52.982Z,13.30
2023-05-09T03:28:19.746Z,15.40
2023-05-09T03:30:46.691Z,15.90
2023-05-09T03:33:14.364Z,14.70
2023-05-09T03:35:41.184Z,14.80
2023-05-09T03:38:08.825Z,14.70
2023-05-09T03:40:35.918Z,15.50
2023-05-09T03:43:06.352Z,14.60
2023-05-09T03:45:33.598Z,15.70
2023-05-09T03:48:01.182Z,15.40
2023-05-09T03:50:29.138Z,15.20
2023-05-09T03:52:57.183Z,15.40
2023-05-09T03:55:24.252Z,14.40
2023-05-09T03:57:51.402Z,13.60
2023-05-09T04:00:18.396Z,12.50
2023-05-09T04:02:48.939Z,10.80
2023-05-09T04:05:22.288Z,9.20
2023-05-09T04:07:49.415Z,11.00
2023-05-09T04:10:16.493Z,9.30
2023-05-09T04:12:43.667Z,12.00
2023-05-09T04:15:11.244Z,17.30
2023-05-09T04:17:38.693Z,9.90
2023-05-09T04:20:08.168Z,18.10
2023-05-09T04:22:35.108Z,20.10
2023-05-09T04:25:02.297Z,18.40
2023-05-09T04:27:29.357Z,14.70
2023-05-09T04:29:56.722Z,14.70
2023-05-09T04:32:23.568Z,10.20
2023-05-09T04:34:50.779Z,10.20
2023-05-09T04:37:20.524Z,8.50
2023-05-09T04:39:47.709Z,7.80
2023-05-09T04:42:19.780Z,7.60
2023-05-09T04:44:46.874Z,7.40
2023-05-09T04:47:14.011Z,6.40
2023-05-09T04:49:40.977Z,7.50
2023-05-09T04:52:08.540Z,6.90
2023-05-09T04:54:35.454Z,7.60
2023-05-09T04:57:14.193Z,6.30
2023-05-09T04:59:45.486Z,7.40
2023-05-09T05:02:13.191Z,5.50
2023-05-09T05:04:41.303Z,5.30
2023-05-09T05:07:08.729Z,5.50
2023-05-09T05:09:35.800Z,5.20
2023-05-09T05:12:05.453Z,5.50
2023-05-09T05:14:34.821Z,5.90
2023-05-09T05:17:01.885Z,6.30
2023-05-09T05:19:28.723Z,5.80
2023-05-09T05:21:56.637Z,5.10
2023-05-09T05:24:25.477Z,5.70
2023-05-09T05:26:52.783Z,5.10
2023-05-09T05:29:20.611Z,4.90
2023-05-09T05:31:47.594Z,5.60
2023-05-09T05:34:16.352Z,5.50
2023-05-09T05:36:43.552Z,5.30
2023-05-09T05:39:10.553Z,6.20
2023-05-09T05:41:37.476Z,5.40
2023-05-09T05:44:04.776Z,5.40
2023-05-09T05:46:32.093Z,7.00
2023-05-09T05:48:59.615Z,5.90
2023-05-09T05:51:27.274Z,6.20
2023-05-09T05:53:54.358Z,6.50
2023-05-09T05:56:22.858Z,4.80
2023-05-09T05:58:49.915Z,5.60
2023-05-09T06:01:17.674Z,5.90
2023-05-09T06:03:44.694Z,5.40
2023-05-09T06:06:11.707Z,5.40
2023-05-09T06:08:38.639Z,6.10
2023-05-09T06:11:06.127Z,5.50
2023-05-09T06:13:33.170Z,5.60
2023-05-09T06:16:15.134Z,5.50
2023-05-09T06:18:47.888Z,5.30
2023-05-09T06:21:14.726Z,4.70
2023-05-09T06:23:56.861Z,4.80
2023-05-09T06:26:28.284Z,4.60
2023-05-09T06:28:55.113Z,4.80
2023-05-09T06:31:22.550Z,4.70
2023-05-09T06:33:51.487Z,5.00
2023-05-09T06:36:18.293Z,4.90
2023-05-09T06:38:45.178Z,4.60
2023-05-09T06:41:11.986Z,4.60
2023-05-09T06:43:38.832Z,4.20
2023-05-09T06:46:05.953Z,4.20
2023-05-09T06:48:32.777Z,4.40
2023-05-09T06:50:59.582Z,4.90
2023-05-09T06:53:26.486Z,5.10
2023-05-09T06:55:53.317Z,4.00
2023-05-09T06:58:20.374Z,4.40
2023-05-09T07:00:47.951Z,4.50
2023-05-09T07:03:16.134Z,4.60
2023-05-09T07:05:42.920Z,4.00
2023-05-09T07:08:12.568Z,4.50
2023-05-09T07:10:39.430Z,4.10
2023-05-09T07:13:06.541Z,4.00
2023-05-09T07:15:41.473Z,4.50
2023-05-09T07:18:09.995Z,3.50
2023-05-09T07:20:36.935Z,3.80
2023-05-09T07:23:04.373Z,3.70
2023-05-09T07:25:31.220Z,4.30
2023-05-09T07:27:58.193Z,4.00
2023-05-09T07:30:25.494Z,3.80
2023-05-09T07:32:52.624Z,3.40
2023-05-09T07:35:19.892Z,3.80
2023-05-09T07:37:46.872Z,3.60
2023-05-09T07:40:14.167Z,3.70
2023-05-09T07:42:42.231Z,3.70
2023-05-09T07:45:10.465Z,3.90
2023-05-09T07:47:37.280Z,4.10
2023-05-09T07:50:04.190Z,3.80
2023-05-09T07:52:30.984Z,3.90
2023-05-09T07:54:57.979Z,3.60
2023-05-09T07:57:25.423Z,3.50
2023-05-09T07:59:52.362Z,4.70
2023-05-09T08:02:19.415Z,3.60
2023-05-09T08:04:49.086Z,3.10
2023-05-09T08:07:16.026Z,3.30
2023-05-09T08:09:42.816Z,3.20
2023-05-09T08:12:09.649Z,3.70
2023-05-09T08:14:36.466Z,3.20
2023-05-09T08:17:03.234Z,3.40
2023-05-09T08:19:30.113Z,2.90
2023-05-09T08:21:57.005Z,3.50
2023-05-09T08:24:23.731Z,3.20
2023-05-09T08:26:50.701Z,2.70
2023-05-09T08:29:17.989Z,3.20
2023-05-09T08:31:45.150Z,2.70
2023-05-09T08:34:12.066Z,2.90
2023-05-09T08:36:40.468Z,3.30
2023-05-09T08:39:07.438Z,3.20
2023-05-09T08:41:36.221Z,2.90
2023-05-09T08:44:03.089Z,3.50
2023-05-09T08:46:31.428Z,2.50
2023-05-09T08:48:58.252Z,3.70
2023-05-09T08:51:25.033Z,2.80
2023-05-09T08:53:51.909Z,2.90
2023-05-09T08:56:18.815Z,3.20
2023-05-09T08:58:45.626Z,2.80
2023-05-09T09:01:15.690Z,3.00
2023-05-09T09:03:47.659Z,3.30
2023-05-09T09:06:14.505Z,2.70
2023-05-09T09:08:41.859Z,3.10
2023-05-09T09:11:11.215Z,3.40
2023-05-09T09:13:38.676Z,3.40
2023-05-09T09:16:05.520Z,2.90
2023-05-09T09:18:32.288Z,3.00
2023-05-09T09:21:09.723Z,2.80
2023-05-09T09:23:37.316Z,2.90
2023-05-09T09:26:07.214Z,3.00
2023-05-09T09:28:33.979Z,3.20
2023-05-09T09:31:01.397Z,3.00
2023-05-09T09:33:29.030Z,2.80
2023-05-09T09:35:56.080Z,3.20
2023-05-09T09:38:23.258Z,2.60
2023-05-09T09:40:53.350Z,2.90
2023-05-09T09:43:20.346Z,3.30
2023-05-09T09:45:53.369Z,3.40
2023-05-09T09:48:26.904Z,3.30
2023-05-09T09:50:54.778Z,3.10
2023-05-09T09:53:21.980Z,3.50
2023-05-09T09:55:49.452Z,3.00
2023-05-09T09:58:17.239Z,3.30
2023-05-09T10:00:44.745Z,3.30
2023-05-09T10:03:15.603Z,2.70
2023-05-09T10:05:42.560Z,2.70
2023-05-09T10:08:09.863Z,3.00
2023-05-09T10:10:37.382Z,2.80
2023-05-09T10:13:08.033Z,2.80
2023-05-09T10:15:49.186Z,3.00
2023-05-09T10:18:20.280Z,3.00
2023-05-09T10:20:48.788Z,3.20
2023-05-09T10:23:15.621Z,3.00
2023-05-09T10:25:42.435Z,3.40
2023-05-09T10:28:13.266Z,3.50
2023-05-09T10:30:46.137Z,3.30
2023-05-09T10:33:13.012Z,3.20
2023-05-09T10:35:47.360Z,2.60
2023-05-09T10:38:14.562Z,2.80
2023-05-09T10:40:41.479Z,3.20
2023-05-09T10:43:08.398Z,2.70
2023-05-09T10:45:35.165Z,3.00
2023-05-09T10:48:03.985Z,2.90
2023-05-09T10:50:31.073Z,2.90
2023-05-09T10:53:19.265Z,2.80
2023-05-09T10:55:50.424Z,2.60
2023-05-09T10:58:21.156Z,3.10
2023-05-09T11:00:48.742Z,3.40
2023-05-09T11:03:15.819Z,2.90
2023-05-09T11:05:42.714Z,3.10
2023-05-09T11:08:35.873Z,3.40
2023-05-09T11:11:08.275Z,2.90
2023-05-09T11:13:37.054Z,3.00
2023-05-09T11:16:05.499Z,3.20
2023-05-09T11:18:32.915Z,2.80
2023-05-09T11:20:59.787Z,3.00
2023-05-09T11:23:27.030Z,3.10
2023-05-09T11:25:53.909Z,3.00
2023-05-09T11:28:30.080Z,3.20
2023-05-09T11:31:12.389Z,2.60
2023-05-09T11:33:39.913Z,2.80
2023-05-09T11:36:25.435Z,3.30
2023-05-09T11:39:04.699Z,2.60
2023-05-09T11:41:31.635Z,3.10
2023-05-09T11:44:00.408Z,2.90
2023-05-09T11:46:27.479Z,3.30
2023-05-09T11:48:54.663Z,3.50
2023-05-09T11:51:21.985Z,2.80
2023-05-09T11:53:54.340Z,2.70
2023-05-09T11:56:23.172Z,2.80
2023-05-09T11:58:50.924Z,3.10
2023-05-09T12:01:18.419Z,3.50
2023-05-09T12:03:45.492Z,3.40
2023-05-09T12:06:16.640Z,3.10
2023-05-09T12:08:43.921Z,3.20
2023-05-09T12:11:10.780Z,2.90
2023-05-09T12:13:44.613Z,3.10
2023-05-09T12:16:11.666Z,3.40
2023-05-09T12:18:38.578Z,2.80
2023-05-09T12:21:07.215Z,3.00
2023-05-09T12:23:37.118Z,3.00
2023-05-09T12:26:03.969Z,2.90
2023-05-09T12:28:30.944Z,3.00
2023-05-09T12:30:57.764Z,3.40
2023-05-09T12:33:24.554Z,3.10
2023-05-09T12:36:05.555Z,2.90
2023-05-09T12:38:32.429Z,3.10
2023-05-09T12:41:03.861Z,2.80
2023-05-09T12:43:34.253Z,2.90
2023-05-09T12:46:01.704Z,3.40
2023-05-09T12:48:28.615Z,3.00
2023-05-09T12:50:55.476Z,3.10
2023-05-09T12:53:25.852Z,3.80
2023-05-09T12:56:16.099Z,2.60
2023-05-09T12:58:49.962Z,3.20
2023-05-09T13:01:16.832Z,3.10
2023-05-09T13:03:44.940Z,3.00
2023-05-09T13:06:15.208Z,2.80
2023-05-09T13:08:41.945Z,2.90
2023-05-09T13:11:17.249Z,3.00
2023-05-09T13:13:44.170Z,3.20
2023-05-09T13:16:12.590Z,2.90
2023-05-09T13:18:41.766Z,2.80
2023-05-09T13:21:08.624Z,3.00
2023-05-09T13:23:35.534Z,3.30
2023-05-09T13:26:02.382Z,2.70
2023-05-09T13:28:29.192Z,3.50
2023-05-09T13:30:56.058Z,2.90
2023-05-09T13:33:26.311Z,2.90
2023-05-09T13:35:53.684Z,2.90
2023-05-09T13:38:20.538Z,2.90
2023-05-09T13:40:47.864Z,4.40
2023-05-09T13:43:14.733Z,3.10
2023-05-09T13:45:41.547Z,3.20
2023-05-09T13:48:08.578Z,2.80
2023-05-09T13:50:35.959Z,3.10
2023-05-09T13:53:03.407Z,3.80
2023-05-09T13:55:31.017Z,3.00
2023-05-09T13:57:57.977Z,3.60
2023-05-09T14:00:26.643Z,4.00
2023-05-09T14:02:53.590Z,3.10
2023-05-09T14:05:20.477Z,2.90
2023-05-09T14:07:47.800Z,3.10
2023-05-09T14:10:14.661Z,3.40
2023-05-09T14:12:44.316Z,3.40
2023-05-09T14:15:11.504Z,2.80
2023-05-09T14:17:38.642Z,3.30
2023-05-09T14:20:06.647Z,3.60
2023-05-09T14:22:33.487Z,3.70
2023-05-09T14:25:00.423Z,3.20
2023-05-09T14:27:27.659Z,3.50
2023-05-09T14:29:54.513Z,4.20
2023-05-09T14:32:21.675Z,3.50
2023-05-09T14:34:49.684Z,3.20
2023-05-09T14:37:17.285Z,2.90
2023-05-09T14:39:45.326Z,2.70
2023-05-09T14:42:14.828Z,3.00
2023-05-09T14:44:41.878Z,2.60
2023-05-09T14:47:09.191Z,3.40
2023-05-09T14:49:36.622Z,3.70
2023-05-09T14:52:03.716Z,4.10
2023-05-09T14:54:30.565Z,2.90
2023-05-09T15:10:24.597Z,3.10
2023-05-09T15:12:51.930Z,3.50
2023-05-09T15:15:20.696Z,3.60
2023-05-09T15:17:47.669Z,3.80
2023-05-09T15:20:18.415Z,4.00
2023-05-09T15:22:49.059Z,4.30
2023-05-09T15:25:16.448Z,3.90
2023-05-09T15:27:43.364Z,4.30
2023-05-09T15:30:10.653Z,4.50
2023-05-09T15:32:39.925Z,11.30
2023-05-09T15:35:07.199Z,11.60
2023-05-09T15:37:35.837Z,6.10
2023-05-09T15:40:03.101Z,5.00
2023-05-09T15:42:30.047Z,3.50
2023-05-09T15:44:57.034Z,3.70
2023-05-09T15:47:23.926Z,3.90
2023-05-09T15:49:50.842Z,5.10
2023-05-09T15:52:18.168Z,5.00
2023-05-09T15:54:45.593Z,4.00
2023-05-09T15:57:42.689Z,3.50
2023-05-09T16:03:59.748Z,3.90
2023-05-09T16:06:28.828Z,3.90
2023-05-09T16:08:55.801Z,4.10
2023-05-09T16:11:22.710Z,3.90
2023-05-09T16:13:49.626Z,3.50
2023-05-09T16:16:16.953Z,5.00
2023-05-09T16:18:43.892Z,4.70
2023-05-09T16:21:10.833Z,6.00
2023-05-09T16:23:39.639Z,3.80
2023-05-09T16:26:06.935Z,4.60
2023-05-09T16:28:33.879Z,4.50
2023-05-09T16:31:04.701Z,4.10
2023-05-09T16:33:32.572Z,5.80
2023-05-09T16:35:59.575Z,4.20
2023-05-09T16:38:26.801Z,3.60
2023-05-09T16:40:53.958Z,3.50
2023-05-09T16:43:20.861Z,4.50
2023-05-09T16:45:50.750Z,4.70
2023-05-09T16:48:17.947Z,4.00
2023-05-09T16:50:45.688Z,4.10
2023-05-09T16:53:12.612Z,4.40
2023-05-09T16:55:40.037Z,5.50
2023-05-09T16:58:08.154Z,6.20
2023-05-09T17:00:35.170Z,6.70
2023-05-09T17:03:02.136Z,4.70
2023-05-09T17:05:29.187Z,7.70
2023-05-09T17:07:56.066Z,4.50
2023-05-09T17:10:22.892Z,4.60
2023-05-09T17:12:50.809Z,5.30
2023-05-09T17:15:17.889Z,4.70
2023-05-09T17:17:47.543Z,5.00
2023-05-09T17:20:14.897Z,5.70
2023-05-09T17:22:42.103Z,10.80
2023-05-09T17:25:09.441Z,12.50
2023-05-09T17:27:37.422Z,7.10
2023-05-09T17:30:05.685Z,4.70
2023-05-09T17:32:32.648Z,5.40
2023-05-09T17:34:59.559Z,6.90
2023-05-09T17:37:26.462Z,6.20
2023-05-09T17:39:54.482Z,5.10
2023-05-09T17:42:21.600Z,5.70
2023-05-09T17:44:48.857Z,5.90
2023-05-09T17:47:16.007Z,6.60
2023-05-09T17:49:43.971Z,4.90
2023-05-09T17:52:10.830Z,5.20
2023-05-09T17:54:37.987Z,5.20
2023-05-09T17:57:04.930Z,5.80
2023-05-09T17:59:32.170Z,6.30
2023-05-09T18:01:59.231Z,6.50
2023-05-09T18:04:27.452Z,6.20
2023-05-09T18:06:54.390Z,6.90
2023-05-09T18:09:22.791Z,6.00
2023-05-09T18:11:50.659Z,6.80
2023-05-09T18:14:17.917Z,6.90
2023-05-09T18:16:44.756Z,7.40
2023-05-09T18:19:11.818Z,6.80
2023-05-09T18:21:39.504Z,6.80
2023-05-09T18:24:09.279Z,6.20
2023-05-09T18:29:34.812Z,12.90
2023-05-09T18:32:02.178Z,11.70
2023-05-09T18:34:29.457Z,11.70
2023-05-09T18:36:57.385Z,9.30
2023-05-09T18:39:24.304Z,9.20
2023-05-09T18:41:51.147Z,8.10
2023-05-09T18:44:18.077Z,7.90
2023-05-09T18:46:45.445Z,7.30
2023-05-09T18:49:12.519Z,8.00
2023-05-09T18:51:39.535Z,8.10
2023-05-09T18:54:07.799Z,7.90
2023-05-09T18:56:39.414Z,11.70
2023-05-09T18:59:07.824Z,17.10
2023-05-09T19:01:34.822Z,16.80
2023-05-09T19:04:02.629Z,15.50
2023-05-09T19:06:29.836Z,12.80
2023-05-09T19:08:56.779Z,11.30
2023-05-09T19:11:23.707Z,10.80
2023-05-09T19:13:50.979Z,9.60
2023-05-09T19:16:19.856Z,9.50
2023-05-09T19:18:46.967Z,9.40
2023-05-09T19:21:15.761Z,9.40
2023-05-09T19:23:42.843Z,9.60
2023-05-09T19:26:10.771Z,9.20
2023-05-09T19:28:37.688Z,12.10
2023-05-09T19:31:04.817Z,14.30
2023-05-09T19:33:31.838Z,15.60
2023-05-09T19:35:58.751Z,16.30
2023-05-09T19:38:25.670Z,15.80
2023-05-09T19:40:52.717Z,13.40
2023-05-09T19:43:19.671Z,10.90
2023-05-09T19:45:46.602Z,11.80
2023-05-09T19:48:15.763Z,9.60
2023-05-09T19:50:43.191Z,10.40
2023-05-09T19:53:10.584Z,14.90
2023-05-09T19:55:38.577Z,13.80
2023-05-09T19:58:05.994Z,10.00
2023-05-09T20:00:33.592Z,12.00
2023-05-09T20:03:00.887Z,10.70
2023-05-09T20:05:28.922Z,9.40
2023-05-09T20:07:57.541Z,9.10
2023-05-09T20:10:24.529Z,7.80
2023-05-09T20:12:53.120Z,7.70
2023-05-09T20:15:20.795Z,8.50
2023-05-09T20:17:48.306Z,7.90
2023-05-09T20:20:15.524Z,8.70
2023-05-09T20:22:42.932Z,7.90
2023-05-09T20:25:10.334Z,7.30
2023-05-09T20:27:37.468Z,8.10
2023-05-09T20:30:04.599Z,8.60
2023-05-09T20:32:32.114Z,8.00
2023-05-09T20:34:59.438Z,7.70
2023-05-09T20:37:26.320Z,8.40
2023-05-09T20:39:53.286Z,8.10
2023-05-09T20:42:20.205Z,7.50
2023-05-09T20:44:47.900Z,8.80
2023-05-09T20:47:14.775Z,8.70
2023-05-09T20:49:41.678Z,11.00
2023-05-09T20:52:08.531Z,9.30
2023-05-09T20:54:35.385Z,9.60
2023-05-09T20:57:02.284Z,8.20
2023-05-09T20:59:29.279Z,9.10
2023-05-09T21:01:56.143Z,8.60
2023-05-09T21:04:23.267Z,8.40
2023-05-09T21:06:50.146Z,9.40
2023-05-09T21:09:17.089Z,8.80
2023-05-09T21:11:44.002Z,9.40
2023-05-09T21:14:11.571Z,8.60
2023-05-09T21:16:38.668Z,8.70
2023-05-09T21:19:06.602Z,8.70
2023-05-09T21:21:33.530Z,8.60
2023-05-09T21:24:03.322Z,9.00
2023-05-09T21:26:30.747Z,10.50
2023-05-09T21:28:57.595Z,10.20
2023-05-09T21:31:24.527Z,11.50
2023-05-09T21:33:52.146Z,10.10
2023-05-09T21:36:19.050Z,9.30
2023-05-09T21:38:45.916Z,7.90
2023-05-09T21:41:12.816Z,8.30
2023-05-09T21:43:39.727Z,9.10
2023-05-09T21:46:06.670Z,9.50
2023-05-09T21:48:33.556Z,9.90
2023-05-09T21:51:03.843Z,9.10
2023-05-09T21:53:30.884Z,8.30
2023-05-09T21:55:57.756Z,8.20
2023-05-09T21:58:24.743Z,8.90
2023-05-09T22:00:51.651Z,8.00
2023-05-09T22:03:18.596Z,8.40
2023-05-09T22:05:45.559Z,8.30
2023-05-09T22:08:12.495Z,8.70
2023-05-09T22:10:39.370Z,8.80
2023-05-09T22:13:06.347Z,10.20
2023-05-09T22:15:33.297Z,11.90
2023-05-09T22:18:00.296Z,12.00
2023-05-09T22:20:27.325Z,11.50
2023-05-09T22:22:54.230Z,10.60
2023-05-09T22:25:21.253Z,10.80
2023-05-09T22:27:48.056Z,8.80
2023-05-09T22:30:15.207Z,8.50
2023-05-09T22:32:43.325Z,7.50
2023-05-09T22:35:10.470Z,8.00
2023-05-09T22:37:37.642Z,8.30
2023-05-09T22:40:05.662Z,7.70
2023-05-09T22:42:34.454Z,8.00
2023-05-09T22:45:10.819Z,8.20
2023-05-09T22:47:37.988Z,8.10
2023-05-09T22:50:05.448Z,8.30
2023-05-09T22:52:32.437Z,8.80
2023-05-09T22:54:59.401Z,8.50
2023-05-09T22:57:26.373Z,8.20
2023-05-09T22:59:53.933Z,8.10
2023-05-09T23:02:21.386Z,7.70
2023-05-09T23:04:48.366Z,7.10
2023-05-09T23:07:15.945Z,6.90
2023-05-09T23:09:42.968Z,7.10
2023-05-09T23:12:10.786Z,8.20
2023-05-09T23:14:38.185Z,7.20
2023-05-09T23:17:05.017Z,7.90
2023-05-09T23:19:32.029Z,7.90
2023-05-09T23:21:59.524Z,9.00
2023-05-09T23:24:26.409Z,7.90
2023-05-09T23:26:53.973Z,8.10
2023-05-09T23:29:20.885Z,8.30
2023-05-09T23:31:48.304Z,7.80
2023-05-09T23:34:15.306Z,7.80
2023-05-09T23:36:42.176Z,10.40
2023-05-09T23:39:09.615Z,14.80
2023-05-09T23:41:36.522Z,12.70
2023-05-09T23:44:03.642Z,14.20
2023-05-09T23:46:30.696Z,12.50
2023-05-09T23:48:57.705Z,14.00
2023-05-09T23:51:24.672Z,12.30
2023-05-09T23:53:51.692Z,12.70
2023-05-09T23:56:18.587Z,12.70
2023-05-09T23:58:45.435Z,13.00
